createdAt,value
2023-09-03T00:00:55.704Z,17.51
2023-09-03T00:03:24.268Z,17.42
2023-09-03T00:05:56.277Z,17.32
2023-09-03T00:08:25.456Z,17.37
2023-09-03T00:10:54.003Z,17.53
2023-09-03T00:13:22.525Z,17.32
2023-09-03T00:15:50.980Z,17.11
2023-09-03T00:18:19.469Z,17.20
2023-09-03T00:21:05.111Z,17.43
2023-09-03T00:23:34.056Z,17.45
2023-09-03T00:26:03.061Z,17.31
2023-09-03T00:28:31.544Z,17.33
2023-09-03T00:31:04.143Z,17.16
2023-09-03T00:33:32.395Z,17.12
2023-09-03T00:36:02.819Z,16.83
2023-09-03T00:38:31.018Z,16.91
2023-09-03T00:40:59.224Z,16.60
2023-09-03T00:43:27.444Z,17.00
2023-09-03T00:45:55.793Z,17.06
2023-09-03T00:48:28.276Z,16.95
2023-09-03T00:50:56.801Z,16.91
2023-09-03T00:53:28.251Z,16.88
2023-09-03T00:55:56.800Z,16.99
2023-09-03T00:58:25.470Z,16.93
2023-09-03T01:00:53.938Z,16.94
2023-09-03T01:03:22.828Z,16.92
2023-09-03T01:05:51.132Z,16.80
2023-09-03T01:08:20.111Z,16.71
2023-09-03T01:11:01.100Z,16.77
2023-09-03T01:13:36.377Z,16.80
2023-09-03T01:16:09.889Z,16.92
2023-09-03T01:18:39.961Z,16.96
2023-09-03T01:21:33.587Z,16.67
2023-09-03T01:24:12.919Z,16.64
2023-09-03T01:26:58.264Z,16.65
2023-09-03T01:29:29.335Z,16.47
2023-09-03T01:32:02.132Z,16.32
2023-09-03T01:34:31.314Z,16.17
2023-09-03T01:36:59.584Z,16.18
2023-09-03T01:39:28.105Z,16.08
2023-09-03T01:41:56.300Z,16.12
2023-09-03T01:44:24.504Z,16.09
2023-09-03T01:47:03.882Z,16.17
2023-09-03T01:49:38.826Z,16.10
2023-09-03T01:52:18.393Z,16.14
2023-09-03T01:54:50.176Z,16.09
2023-09-03T01:57:22.805Z,16.06
2023-09-03T01:59:53.885Z,15.94
2023-09-03T02:02:23.687Z,15.91
2023-09-03T02:04:52.282Z,15.74
2023-09-03T02:07:20.539Z,15.90
2023-09-03T02:09:48.768Z,15.91
2023-09-03T02:12:24.771Z,15.89
2023-09-03T02:14:53.116Z,16.01
2023-09-03T02:17:21.558Z,16.07
2023-09-03T02:19:53.870Z,15.76
2023-09-03T02:22:22.381Z,15.78
2023-09-03T02:24:52.240Z,15.96
2023-09-03T02:27:20.544Z,15.94
2023-09-03T02:29:48.719Z,15.60
2023-09-03T02:32:16.897Z,15.73
2023-09-03T02:34:45.047Z,16.09
2023-09-03T02:37:14.593Z,15.99
2023-09-03T02:39:43.251Z,15.92
2023-09-03T02:42:11.440Z,15.81
2023-09-03T02:44:39.518Z,15.82
2023-09-03T02:47:07.818Z,15.68
2023-09-03T02:49:36.085Z,15.65
2023-09-03T02:52:04.505Z,15.77
2023-09-03T02:54:34.073Z,15.65
2023-09-03T02:57:02.252Z,15.60
2023-09-03T02:59:30.761Z,15.68
2023-09-03T03:01:58.988Z,15.73
2023-09-03T03:04:27.286Z,15.78
2023-09-03T03:06:55.409Z,15.74
2023-09-03T03:09:25.072Z,15.66
2023-09-03T03:11:54.657Z,15.52
2023-09-03T03:14:22.843Z,15.40
2023-09-03T03:16:51.005Z,15.57
2023-09-03T03:19:19.313Z,15.65
2023-09-03T03:21:47.470Z,15.62
2023-09-03T03:24:15.667Z,15.77
2023-09-03T03:26:43.831Z,15.64
2023-09-03T03:29:13.392Z,15.62
2023-09-03T03:31:43.299Z,15.61
2023-09-03T03:34:11.538Z,15.61
2023-09-03T03:36:39.782Z,15.64
2023-09-03T03:39:08.116Z,15.71
2023-09-03T03:41:38.978Z,15.53
2023-09-03T03:44:07.174Z,15.48
2023-09-03T03:46:36.861Z,15.37
2023-09-03T03:49:06.108Z,15.47
2023-09-03T03:51:34.308Z,15.41
2023-09-03T03:54:05.648Z,15.43
2023-09-03T03:56:33.845Z,15.40
2023-09-03T03:59:02.030Z,15.34
2023-09-03T04:01:30.227Z,15.30
2023-09-03T04:03:59.908Z,15.18
2023-09-03T04:06:29.264Z,15.16
2023-09-03T04:08:57.404Z,15.37
2023-09-03T04:11:26.083Z,15.60
2023-09-03T04:13:54.300Z,15.50
2023-09-03T04:16:26.883Z,15.35
2023-09-03T04:18:55.029Z,14.91
2023-09-03T04:21:24.931Z,15.03
2023-09-03T04:23:53.095Z,15.04
2023-09-03T04:26:21.228Z,14.85
2023-09-03T04:28:49.470Z,15.01
2023-09-03T04:31:18.303Z,14.82
2023-09-03T04:33:46.628Z,14.67
2023-09-03T04:36:14.857Z,14.52
2023-09-03T04:38:44.425Z,14.60
2023-09-03T04:41:12.625Z,14.33
2023-09-03T04:43:46.336Z,14.51
2023-09-03T04:46:14.237Z,14.70
2023-09-03T04:48:42.620Z,14.63
2023-09-03T04:51:10.748Z,14.60
2023-09-03T04:53:38.967Z,14.72
2023-09-03T04:56:14.526Z,14.74
2023-09-03T04:58:42.708Z,14.82
2023-09-03T05:01:17.714Z,14.71
2023-09-03T05:03:47.564Z,14.72
2023-09-03T05:06:17.085Z,14.61
2023-09-03T05:08:46.838Z,14.93
2023-09-03T05:11:17.841Z,14.93
2023-09-03T05:13:46.029Z,14.98
2023-09-03T05:16:14.291Z,14.87
2023-09-03T05:18:42.485Z,14.79
2023-09-03T05:21:10.737Z,14.71
2023-09-03T05:23:39.236Z,14.75
2023-09-03T05:26:07.680Z,14.65
2023-09-03T05:28:37.330Z,14.76
2023-09-03T05:31:05.558Z,14.96
2023-09-03T05:33:33.778Z,15.05
2023-09-03T05:36:02.010Z,14.95
2023-09-03T05:38:30.332Z,14.89
2023-09-03T05:41:00.214Z,15.03
2023-09-03T05:43:28.924Z,15.28
2023-09-03T05:45:58.538Z,15.07
2023-09-03T05:48:26.773Z,15.32
2023-09-03T05:51:00.715Z,15.51
2023-09-03T05:53:28.926Z,15.69
2023-09-03T05:56:05.845Z,15.67
2023-09-03T05:58:34.324Z,15.76
2023-09-03T06:01:06.955Z,15.78
2023-09-03T06:03:35.240Z,15.80
2023-09-03T06:06:04.848Z,15.86
2023-09-03T06:08:33.201Z,15.94
2023-09-03T06:11:01.849Z,15.92
2023-09-03T06:13:30.468Z,16.11
2023-09-03T06:15:59.953Z,16.13
2023-09-03T06:18:29.665Z,16.27
2023-09-03T06:20:57.961Z,16.45
2023-09-03T06:23:27.425Z,16.56
2023-09-03T06:25:58.620Z,16.54
2023-09-03T06:28:27.924Z,16.67
2023-09-03T06:30:58.470Z,16.63
2023-09-03T06:33:26.652Z,16.60
2023-09-03T06:35:57.724Z,16.56
2023-09-03T06:38:25.897Z,16.68
2023-09-03T06:40:54.085Z,16.88
2023-09-03T06:43:22.251Z,16.89
2023-09-03T06:45:51.199Z,16.93
2023-09-03T06:48:19.970Z,16.69
2023-09-03T06:50:48.406Z,16.77
2023-09-03T06:53:18.056Z,16.81
2023-09-03T06:55:47.097Z,16.91
2023-09-03T06:58:15.497Z,17.08
2023-09-03T07:00:45.824Z,17.10
2023-09-03T07:03:15.739Z,17.07
2023-09-03T07:05:43.881Z,17.23
2023-09-03T07:08:12.048Z,17.24
2023-09-03T07:10:41.637Z,17.25
2023-09-03T07:13:12.241Z,17.46
2023-09-03T07:15:40.400Z,17.29
2023-09-03T07:18:08.944Z,17.56
2023-09-03T07:20:37.194Z,17.63
2023-09-03T07:23:05.608Z,17.61
2023-09-03T07:25:35.900Z,17.80
2023-09-03T07:28:06.054Z,17.92
2023-09-03T07:30:34.261Z,18.07
2023-09-03T07:33:02.457Z,18.18
2023-09-03T07:35:33.220Z,18.15
2023-09-03T07:38:01.453Z,18.48
2023-09-03T07:40:30.167Z,18.64
2023-09-03T07:42:58.290Z,18.64
2023-09-03T07:45:27.955Z,18.83
2023-09-03T07:47:56.113Z,18.91
2023-09-03T07:50:24.536Z,19.06
2023-09-03T07:52:52.781Z,19.22
2023-09-03T07:55:20.995Z,19.30
2023-09-03T07:57:49.116Z,19.42
2023-09-03T08:00:17.515Z,19.18
2023-09-03T08:02:47.078Z,19.45
2023-09-03T08:05:15.463Z,19.53
2023-09-03T08:07:43.645Z,19.84
2023-09-03T08:10:12.027Z,20.13
2023-09-03T08:12:40.345Z,20.11
2023-09-03T08:15:09.591Z,20.06
2023-09-03T08:17:37.821Z,20.25
2023-09-03T08:20:08.677Z,20.20
2023-09-03T08:22:38.404Z,20.25
2023-09-03T08:25:08.240Z,20.54
2023-09-03T08:27:36.531Z,20.55
2023-09-03T08:30:05.129Z,20.67
2023-09-03T08:32:33.402Z,20.72
2023-09-03T08:35:01.691Z,20.54
2023-09-03T08:37:31.638Z,20.50
2023-09-03T08:39:59.817Z,20.94
2023-09-03T08:42:29.209Z,21.04
2023-09-03T08:45:01.360Z,21.26
2023-09-03T08:47:29.921Z,21.67
2023-09-03T08:49:59.922Z,21.98
2023-09-03T08:52:28.881Z,22.20
2023-09-03T08:54:59.586Z,21.81
2023-09-03T08:57:30.525Z,21.85
2023-09-03T08:59:59.080Z,22.35
2023-09-03T09:02:28.965Z,22.05
2023-09-03T09:04:57.605Z,22.62
2023-09-03T09:07:26.588Z,22.41
2023-09-03T09:09:59.962Z,22.22
2023-09-03T09:12:34.649Z,22.51
2023-09-03T09:15:04.764Z,22.39
2023-09-03T09:17:38.585Z,22.73
2023-09-03T09:20:07.737Z,22.66
2023-09-03T09:22:42.296Z,23.15
2023-09-03T09:25:11.796Z,23.34
2023-09-03T09:27:44.493Z,23.57
2023-09-03T09:30:15.387Z,23.43
2023-09-03T09:32:45.289Z,23.18
2023-09-03T09:35:25.275Z,23.65
2023-09-03T09:37:53.897Z,23.60
2023-09-03T09:40:29.440Z,23.46
2023-09-03T09:43:01.169Z,23.32
2023-09-03T09:45:30.089Z,24.36
2023-09-03T09:48:08.816Z,24.11
2023-09-03T09:50:38.397Z,24.16
2023-09-03T09:53:07.483Z,24.01
2023-09-03T09:55:36.481Z,24.57
2023-09-03T09:58:08.586Z,24.33
2023-09-03T10:00:38.493Z,24.92
2023-09-03T10:03:08.557Z,24.88
2023-09-03T10:05:37.033Z,25.15
2023-09-03T10:08:06.460Z,25.20
2023-09-03T10:10:34.707Z,24.97
2023-09-03T10:13:03.933Z,25.16
2023-09-03T10:15:33.712Z,24.94
2023-09-03T10:18:05.249Z,24.83
2023-09-03T10:20:33.955Z,24.56
2023-09-03T10:23:06.187Z,24.66
2023-09-03T10:25:37.637Z,24.32
2023-09-03T10:28:08.349Z,25.05
2023-09-03T10:30:43.327Z,25.44
2023-09-03T10:33:12.915Z,25.26
2023-09-03T10:35:41.105Z,24.80
2023-09-03T10:38:32.406Z,25.12
2023-09-03T10:41:18.939Z,25.40
2023-09-03T10:43:49.916Z,25.18
2023-09-03T10:46:20.018Z,25.46
2023-09-03T10:48:55.629Z,25.37
2023-09-03T10:51:37.757Z,25.53
2023-09-03T10:54:20.039Z,25.44
2023-09-03T10:57:19.278Z,25.29
2023-09-03T11:00:15.062Z,25.30
2023-09-03T11:02:49.792Z,25.77
2023-09-03T11:05:22.298Z,25.06
2023-09-03T11:07:52.345Z,25.01
2023-09-03T11:10:43.062Z,25.90
2023-09-03T11:13:31.110Z,25.82
2023-09-03T11:16:04.488Z,25.90
2023-09-03T11:18:34.572Z,25.60
2023-09-03T11:21:03.818Z,26.00
2023-09-03T11:23:36.280Z,26.10
2023-09-03T11:26:07.415Z,25.84
2023-09-03T11:28:38.497Z,25.78
2023-09-03T11:31:07.060Z,25.71
2023-09-03T11:33:36.736Z,26.27
2023-09-03T11:36:05.262Z,26.30
2023-09-03T11:38:34.899Z,25.86
2023-09-03T11:41:03.667Z,26.46
2023-09-03T11:43:33.127Z,26.70
2023-09-03T11:46:05.727Z,26.09
2023-09-03T11:48:38.254Z,26.48
2023-09-03T11:51:08.058Z,26.62
2023-09-03T11:53:44.663Z,26.62
2023-09-03T11:56:17.516Z,26.33
2023-09-03T11:58:49.292Z,26.27
2023-09-03T12:01:18.705Z,26.55
2023-09-03T12:03:47.199Z,26.31
2023-09-03T12:06:18.217Z,26.22
2023-09-03T12:08:46.532Z,26.60
2023-09-03T12:11:14.858Z,26.72
2023-09-03T12:13:43.105Z,26.70
2023-09-03T12:16:16.601Z,26.69
2023-09-03T12:18:57.017Z,26.89
2023-09-03T12:21:35.212Z,26.89
2023-09-03T12:24:05.414Z,26.68
2023-09-03T12:26:34.184Z,26.49
2023-09-03T12:29:04.831Z,26.82
2023-09-03T12:31:43.235Z,26.86
2023-09-03T12:34:11.482Z,27.02
2023-09-03T12:36:59.593Z,27.46
2023-09-03T12:39:32.083Z,27.78
2023-09-03T12:42:00.710Z,27.41
2023-09-03T12:44:29.500Z,27.05
2023-09-03T12:46:58.112Z,27.55
2023-09-03T12:49:27.417Z,27.59
2023-09-03T12:51:56.261Z,27.56
2023-09-03T12:54:26.236Z,27.44
2023-09-03T12:56:55.102Z,27.61
2023-09-03T12:59:23.352Z,27.43
2023-09-03T13:01:51.624Z,28.09
2023-09-03T13:04:19.938Z,27.87
2023-09-03T13:06:48.751Z,27.28
2023-09-03T13:09:17.015Z,27.68
2023-09-03T13:11:46.663Z,28.08
2023-09-03T13:14:14.885Z,27.45
2023-09-03T13:16:43.150Z,27.50
2023-09-03T13:19:11.447Z,27.53
2023-09-03T13:21:39.741Z,27.33
2023-09-03T13:24:08.285Z,27.44
2023-09-03T13:26:37.394Z,27.34
2023-09-03T13:29:07.036Z,27.31
2023-09-03T13:31:35.406Z,27.54
2023-09-03T13:34:03.683Z,27.89
2023-09-03T13:36:31.852Z,27.85
2023-09-03T13:39:00.686Z,27.78
2023-09-03T13:41:28.960Z,28.03
2023-09-03T13:43:57.194Z,28.26
2023-09-03T13:46:27.451Z,27.80
2023-09-03T13:48:56.554Z,27.61
2023-09-03T13:51:24.862Z,27.45
2023-09-03T13:53:54.857Z,27.56
2023-09-03T13:56:23.209Z,27.58
2023-09-03T13:58:51.744Z,27.53
2023-09-03T14:01:22.349Z,27.28
2023-09-03T14:03:53.911Z,27.75
2023-09-03T14:06:22.190Z,27.74
2023-09-03T14:08:50.453Z,27.67
2023-09-03T14:11:18.668Z,27.56
2023-09-03T14:13:48.508Z,27.85
2023-09-03T14:16:17.227Z,28.18
2023-09-03T14:18:45.895Z,27.92
2023-09-03T14:21:15.481Z,27.76
2023-09-03T14:23:43.723Z,27.86
2023-09-03T14:26:15.410Z,27.81
2023-09-03T14:28:43.800Z,27.73
2023-09-03T14:31:12.080Z,27.98
2023-09-03T14:33:40.415Z,27.94
2023-09-03T14:36:08.690Z,28.12
2023-09-03T14:38:38.265Z,28.52
2023-09-03T14:41:06.505Z,28.37
2023-09-03T14:43:34.866Z,28.36
2023-09-03T14:46:03.233Z,27.67
2023-09-03T14:48:31.411Z,27.84
2023-09-03T14:50:59.667Z,28.12
2023-09-03T14:53:27.875Z,28.22
2023-09-03T14:55:57.595Z,27.66
2023-09-03T14:58:25.973Z,27.59
2023-09-03T15:00:55.964Z,27.86
2023-09-03T15:03:24.308Z,28.10
2023-09-03T15:05:52.643Z,28.43
2023-09-03T15:08:21.023Z,27.66
2023-09-03T15:10:49.548Z,28.13
2023-09-03T15:13:21.609Z,27.99
2023-09-03T15:15:51.745Z,27.57
2023-09-03T15:18:20.391Z,27.78
2023-09-03T15:20:55.163Z,27.91
2023-09-03T15:23:23.921Z,28.10
2023-09-03T15:25:52.224Z,28.02
2023-09-03T15:28:22.968Z,28.24
2023-09-03T15:30:51.720Z,28.01
2023-09-03T15:33:20.267Z,27.64
2023-09-03T15:35:49.136Z,27.58
2023-09-03T15:38:18.518Z,27.29
2023-09-03T15:40:47.023Z,27.33
2023-09-03T15:43:15.405Z,27.69
2023-09-03T15:45:45.165Z,27.85
2023-09-03T15:48:13.600Z,27.73
2023-09-03T15:50:42.958Z,27.20
2023-09-03T15:53:11.677Z,27.05
2023-09-03T15:55:40.015Z,26.95
2023-09-03T15:58:09.487Z,27.03
2023-09-03T16:00:41.772Z,26.95
2023-09-03T16:03:11.577Z,27.00
2023-09-03T16:05:44.325Z,26.79
2023-09-03T16:08:12.549Z,27.16
2023-09-03T16:10:41.061Z,27.01
2023-09-03T16:13:09.818Z,27.17
2023-09-03T16:15:42.716Z,26.97
2023-09-03T16:18:14.428Z,26.84
2023-09-03T16:20:43.150Z,26.98
2023-09-03T16:23:11.514Z,26.96
2023-09-03T16:25:39.864Z,26.74
2023-09-03T16:28:08.374Z,26.83
2023-09-03T16:30:36.738Z,26.83
2023-09-03T16:33:06.587Z,26.58
2023-09-03T16:35:36.549Z,26.73
2023-09-03T16:38:05.229Z,26.86
2023-09-03T16:40:33.561Z,26.36
2023-09-03T16:43:01.849Z,26.30
2023-09-03T16:45:30.026Z,26.28
2023-09-03T16:47:58.349Z,26.07
2023-09-03T16:50:26.656Z,25.98
2023-09-03T16:52:56.937Z,25.94
2023-09-03T16:55:25.124Z,25.53
2023-09-03T16:57:53.392Z,25.61
2023-09-03T17:00:21.634Z,25.41
2023-09-03T17:02:49.892Z,25.27
2023-09-03T17:05:18.467Z,25.25
2023-09-03T17:07:46.730Z,25.17
2023-09-03T17:10:18.119Z,25.35
2023-09-03T17:12:46.402Z,25.18
2023-09-03T17:15:14.689Z,25.20
2023-09-03T17:17:45.265Z,25.10
2023-09-03T17:20:14.378Z,25.05
2023-09-03T17:22:42.603Z,24.85
2023-09-03T17:25:11.023Z,24.62
2023-09-03T17:27:40.628Z,24.72
2023-09-03T17:30:10.053Z,24.59
2023-09-03T17:32:38.342Z,24.55
2023-09-03T17:35:07.035Z,24.43
2023-09-03T17:37:36.537Z,24.51
2023-09-03T17:40:06.392Z,24.45
2023-09-03T17:42:34.802Z,24.48
2023-09-03T17:45:04.898Z,24.44
2023-09-03T17:47:33.611Z,24.11
2023-09-03T17:50:01.874Z,24.18
2023-09-03T17:52:30.194Z,24.00
2023-09-03T17:54:58.454Z,23.96
2023-09-03T17:57:26.678Z,23.99
2023-09-03T17:59:56.469Z,23.95
2023-09-03T18:02:26.194Z,23.76
2023-09-03T18:04:57.074Z,23.64
2023-09-03T18:07:25.318Z,23.84
2023-09-03T18:09:53.563Z,23.72
2023-09-03T18:12:21.803Z,23.55
2023-09-03T18:14:49.972Z,23.49
2023-09-03T18:17:18.548Z,23.57
2023-09-03T18:19:49.054Z,23.58
2023-09-03T18:22:17.340Z,23.33
2023-09-03T18:24:45.596Z,23.25
2023-09-03T18:27:13.848Z,23.10
2023-09-03T18:29:42.109Z,23.04
2023-09-03T18:32:10.808Z,23.08
2023-09-03T18:34:39.359Z,23.15
2023-09-03T18:37:08.959Z,23.08
2023-09-03T18:39:38.428Z,22.95
2023-09-03T18:42:07.055Z,22.65
2023-09-03T18:44:35.262Z,22.56
2023-09-03T18:47:03.981Z,22.60
2023-09-03T18:49:43.005Z,22.67
2023-09-03T18:52:12.712Z,22.57
2023-09-03T18:54:40.897Z,22.42
2023-09-03T18:57:09.125Z,22.48
2023-09-03T18:59:37.506Z,22.35
2023-09-03T19:02:05.891Z,22.31
2023-09-03T19:04:34.152Z,22.04
2023-09-03T19:07:02.395Z,22.04
2023-09-03T19:09:32.487Z,22.02
2023-09-03T19:12:00.762Z,21.90
2023-09-03T19:14:28.999Z,22.04
2023-09-03T19:16:57.317Z,21.93
2023-09-03T19:19:25.557Z,22.05
2023-09-03T19:21:53.845Z,21.71
2023-09-03T19:24:24.096Z,21.87
2023-09-03T19:26:54.035Z,21.86
2023-09-03T19:29:22.231Z,21.82
2023-09-03T19:31:51.339Z,21.70
2023-09-03T19:34:25.153Z,21.83
2023-09-03T19:36:54.150Z,21.71
2023-09-03T19:39:22.471Z,21.67
2023-09-03T19:41:52.107Z,21.59
2023-09-03T19:44:23.215Z,21.40
2023-09-03T19:46:51.899Z,21.14
2023-09-03T19:49:20.227Z,21.26
2023-09-03T19:51:50.008Z,20.93
2023-09-03T19:54:20.594Z,21.07
2023-09-03T19:56:48.924Z,21.17
2023-09-03T19:59:17.228Z,21.19
2023-09-03T20:01:47.171Z,20.83
2023-09-03T20:04:16.086Z,20.63
2023-09-03T20:06:44.266Z,20.86
2023-09-03T20:09:12.714Z,20.77
2023-09-03T20:11:41.086Z,20.85
2023-09-03T20:14:11.475Z,20.61
2023-09-03T20:16:39.772Z,20.36
2023-09-03T20:19:09.531Z,20.22
2023-09-03T20:21:37.782Z,20.39
2023-09-03T20:24:06.469Z,20.18
2023-09-03T20:26:34.677Z,20.28
2023-09-03T20:29:02.874Z,20.26
2023-09-03T20:31:34.326Z,20.15
2023-09-03T20:34:03.066Z,20.16
2023-09-03T20:36:32.857Z,19.70
2023-09-03T20:39:01.107Z,19.70
2023-09-03T20:41:29.408Z,19.70
2023-09-03T20:44:00.422Z,19.94
2023-09-03T20:46:29.178Z,19.67
2023-09-03T20:49:02.050Z,20.06
2023-09-03T20:51:30.230Z,20.02
2023-09-03T20:53:59.822Z,20.11
2023-09-03T20:56:28.181Z,19.82
2023-09-03T20:58:56.531Z,19.50
2023-09-03T21:01:24.782Z,19.45
2023-09-03T21:03:53.080Z,19.38
2023-09-03T21:06:22.108Z,19.40
2023-09-03T21:08:50.374Z,19.13
2023-09-03T21:11:20.171Z,19.18
2023-09-03T21:13:48.452Z,19.31
2023-09-03T21:16:16.683Z,19.21
2023-09-03T21:18:44.872Z,19.28
2023-09-03T21:21:13.013Z,19.19
2023-09-03T21:23:41.241Z,18.99
2023-09-03T21:26:14.841Z,18.85
2023-09-03T21:28:44.563Z,18.94
2023-09-03T21:31:18.470Z,19.08
2023-09-03T21:33:46.902Z,18.82
2023-09-03T21:36:18.716Z,18.80
2023-09-03T21:38:47.278Z,19.02
2023-09-03T21:41:15.617Z,18.98
2023-09-03T21:43:47.739Z,19.01
2023-09-03T21:46:16.016Z,19.01
2023-09-03T21:48:44.213Z,18.89
2023-09-03T21:51:19.265Z,18.76
2023-09-03T21:53:48.343Z,18.74
2023-09-03T21:56:16.621Z,18.80
2023-09-03T21:58:46.224Z,18.73
2023-09-03T22:01:14.983Z,18.71
2023-09-03T22:03:45.247Z,18.51
2023-09-03T22:06:14.819Z,18.43
2023-09-03T22:08:44.962Z,18.56
2023-09-03T22:11:13.456Z,18.58
2023-09-03T22:13:41.791Z,18.37
2023-09-03T22:16:11.702Z,18.43
2023-09-03T22:18:55.453Z,18.45
2023-09-03T22:21:25.066Z,18.34
2023-09-03T22:23:53.305Z,18.36
2023-09-03T22:26:21.607Z,18.12
2023-09-03T22:28:49.843Z,18.23
2023-09-03T22:31:19.633Z,18.27
2023-09-03T22:33:48.371Z,18.29
2023-09-03T22:36:16.553Z,18.06
2023-09-03T22:38:45.044Z,18.06
2023-09-03T22:41:13.302Z,18.16
2023-09-03T22:43:41.737Z,18.17
2023-09-03T22:46:10.075Z,18.19
2023-09-03T22:48:39.738Z,17.97
2023-09-03T22:51:07.941Z,18.03
2023-09-03T22:53:36.125Z,18.16
2023-09-03T22:56:04.808Z,18.11
2023-09-03T22:58:33.175Z,18.02
2023-09-03T23:01:01.893Z,18.08
2023-09-03T23:03:30.119Z,18.11
2023-09-03T23:06:00.272Z,18.24
2023-09-03T23:08:28.478Z,18.11
2023-09-03T23:10:56.680Z,18.00
2023-09-03T23:13:24.894Z,18.13
2023-09-03T23:15:53.074Z,18.06
2023-09-03T23:18:23.502Z,17.66
2023-09-03T23:20:53.862Z,17.76
2023-09-03T23:23:23.605Z,17.71
2023-09-03T23:25:51.784Z,17.88
2023-09-03T23:28:20.192Z,17.87
2023-09-03T23:30:48.633Z,18.05
2023-09-03T23:33:16.821Z,17.78
2023-09-03T23:35:45.001Z,17.76
2023-09-03T23:38:13.147Z,17.86
2023-09-03T23:40:42.964Z,17.67
2023-09-03T23:43:11.165Z,17.68
2023-09-03T23:45:40.064Z,17.56
2023-09-03T23:48:08.505Z,17.64
2023-09-03T23:50:37.625Z,17.64
2023-09-03T23:53:05.900Z,17.69
2023-09-03T23:55:34.091Z,17.55
2023-09-03T23:58:03.915Z,17.34
